createdAt,value
2019-02-15T00:00:32.385Z,0
2019-02-15T00:01:17.731Z,0
2019-02-15T00:02:17.743Z,0
2019-02-15T00:03:17.755Z,0
2019-02-15T00:04:17.773Z,0
2019-02-15T00:05:17.783Z,0
2019-02-15T00:06:17.545Z,0
2019-02-15T00:07:17.810Z,0
2019-02-15T00:08:17.823Z,0
2019-02-15T00:09:17.835Z,0
2019-02-15T00:10:17.851Z,0
2019-02-15T00:11:32.524Z,0
2019-02-15T00:12:17.879Z,0
2019-02-15T00:14:18.011Z,0
2019-02-15T00:15:17.922Z,0
2019-02-15T00:16:17.926Z,0
2019-02-15T00:17:17.938Z,0
2019-02-15T00:18:17.956Z,0
2019-02-15T00:19:17.968Z,0
2019-02-15T00:20:17.979Z,0
2019-02-15T00:21:17.998Z,0
2019-02-15T00:22:18.019Z,0
2019-02-15T00:23:18.017Z,0
2019-02-15T00:24:18.033Z,0
2019-02-15T00:25:18.051Z,0
2019-02-15T00:26:19.115Z,0
2019-02-15T00:27:18.075Z,0
2019-02-15T00:28:32.760Z,0
2019-02-15T00:29:18.129Z,0
2019-02-15T00:30:18.164Z,0
2019-02-15T00:31:18.235Z,0
2019-02-15T00:32:32.800Z,0
2019-02-15T00:33:18.155Z,0
2019-02-15T00:34:18.166Z,0
2019-02-15T00:36:18.209Z,0
2019-02-15T00:37:32.867Z,0
2019-02-15T00:38:18.220Z,0
2019-02-15T00:39:18.229Z,0
2019-02-15T00:40:18.239Z,0
2019-02-15T00:41:18.255Z,0
2019-02-15T00:42:18.313Z,0
2019-02-15T00:43:26.850Z,0
2019-02-15T00:44:32.961Z,0
2019-02-15T00:45:32.970Z,0
2019-02-15T00:47:18.335Z,0
2019-02-15T00:48:33.005Z,0
2019-02-15T00:49:18.360Z,0
2019-02-15T00:50:18.121Z,0
2019-02-15T00:51:18.486Z,0
2019-02-15T00:52:18.393Z,0
2019-02-15T00:53:18.179Z,0
2019-02-15T00:54:33.086Z,0
2019-02-15T00:55:18.436Z,0
2019-02-15T00:56:18.447Z,0
2019-02-15T00:57:18.463Z,0
2019-02-15T00:58:18.474Z,0
2019-02-15T00:59:33.147Z,0
2019-02-15T01:00:18.518Z,0
2019-02-15T01:01:33.174Z,0
2019-02-15T01:03:18.635Z,0
2019-02-15T01:04:33.212Z,0
2019-02-15T01:05:18.621Z,0
2019-02-15T01:06:18.579Z,0
2019-02-15T01:07:18.636Z,0
2019-02-15T01:08:18.773Z,0
2019-02-15T01:09:18.614Z,0
2019-02-15T01:10:18.625Z,0
2019-02-15T01:11:18.642Z,0
2019-02-15T01:12:18.649Z,0
2019-02-15T01:13:18.668Z,0
2019-02-15T01:14:18.678Z,0
2019-02-15T01:15:18.689Z,0
2019-02-15T01:16:18.704Z,0
2019-02-15T01:17:18.723Z,0
2019-02-15T01:18:18.733Z,0
2019-02-15T01:19:18.739Z,0
2019-02-15T01:20:33.420Z,0
2019-02-15T01:21:18.771Z,0
2019-02-15T01:22:18.779Z,0
2019-02-15T01:23:18.790Z,0
2019-02-15T01:24:18.812Z,0
2019-02-15T01:25:18.819Z,0
2019-02-15T01:26:18.832Z,0
2019-02-15T01:27:18.847Z,0
2019-02-15T01:28:18.865Z,0
2019-02-15T01:29:18.970Z,0
2019-02-15T01:30:18.883Z,0
2019-02-15T01:31:18.896Z,0
2019-02-15T01:32:18.911Z,0
2019-02-15T01:34:18.930Z,0
2019-02-15T01:35:33.607Z,0
2019-02-15T01:37:18.972Z,0
2019-02-15T01:38:18.982Z,0
2019-02-15T01:39:19.103Z,0
2019-02-15T01:40:19.019Z,0
2019-02-15T01:42:19.068Z,0
2019-02-15T01:43:19.064Z,0
2019-02-15T01:44:19.074Z,0
2019-02-15T01:45:19.068Z,0
2019-02-15T01:46:19.086Z,0
2019-02-15T01:47:19.198Z,0
2019-02-15T01:48:19.107Z,0
2019-02-15T01:49:19.122Z,0
2019-02-15T01:50:19.138Z,0
2019-02-15T01:51:19.237Z,0
2019-02-15T01:52:19.199Z,0
2019-02-15T01:53:19.192Z,0
2019-02-15T01:54:19.185Z,0
2019-02-15T01:55:19.200Z,0
2019-02-15T01:56:19.212Z,0
2019-02-15T01:57:19.228Z,0
2019-02-15T01:58:19.250Z,0
2019-02-15T01:59:19.252Z,0
2019-02-15T02:00:19.259Z,0
2019-02-15T02:01:33.940Z,0
2019-02-15T02:02:19.283Z,0
2019-02-15T02:04:33.973Z,0
2019-02-15T02:05:19.323Z,0
2019-02-15T02:06:19.336Z,0
2019-02-15T02:07:34.010Z,0
2019-02-15T02:08:19.428Z,0
2019-02-15T02:09:19.393Z,0
2019-02-15T02:11:19.418Z,0
2019-02-15T02:12:34.083Z,0
2019-02-15T02:13:19.454Z,0
2019-02-15T02:14:19.447Z,0
2019-02-15T02:15:34.125Z,0
2019-02-15T02:16:19.224Z,0
2019-02-15T02:17:34.138Z,0
2019-02-15T02:18:34.146Z,0
2019-02-15T02:19:19.496Z,0
2019-02-15T02:20:19.517Z,0
2019-02-15T02:21:33.955Z,0
2019-02-15T02:22:19.533Z,0
2019-02-15T02:23:34.210Z,0
2019-02-15T02:24:34.230Z,0
2019-02-15T02:25:19.581Z,0
2019-02-15T02:26:19.589Z,0
2019-02-15T02:27:19.614Z,0
2019-02-15T02:28:19.618Z,0
2019-02-15T02:29:19.633Z,0
2019-02-15T02:30:19.710Z,0
2019-02-15T02:31:19.671Z,0
2019-02-15T02:32:19.684Z,0
2019-02-15T02:33:19.714Z,0
2019-02-15T02:34:19.710Z,0
2019-02-15T02:35:19.710Z,0
2019-02-15T02:36:19.717Z,0
2019-02-15T02:37:19.729Z,0
2019-02-15T02:38:19.739Z,0
2019-02-15T02:39:34.426Z,0
2019-02-15T02:40:19.849Z,0
2019-02-15T02:41:19.771Z,0
2019-02-15T02:42:19.788Z,0
2019-02-15T02:43:19.794Z,0
2019-02-15T02:44:19.808Z,0
2019-02-15T02:45:19.852Z,0
2019-02-15T02:46:19.837Z,0
2019-02-15T02:47:19.861Z,0
2019-02-15T02:48:19.865Z,0
2019-02-15T02:49:34.546Z,0
2019-02-15T02:50:19.910Z,0
2019-02-15T02:52:19.912Z,0
2019-02-15T02:53:19.927Z,0
2019-02-15T02:54:19.952Z,0
2019-02-15T02:55:34.611Z,0
2019-02-15T02:56:19.957Z,0
2019-02-15T02:57:19.993Z,0
2019-02-15T02:58:19.994Z,0
2019-02-15T02:59:20.029Z,0
2019-02-15T03:00:20.011Z,0
2019-02-15T03:01:20.052Z,0
2019-02-15T03:03:20.057Z,0
2019-02-15T03:04:34.718Z,0
2019-02-15T03:05:20.074Z,0
2019-02-15T03:06:20.103Z,0
2019-02-15T03:07:20.096Z,0
2019-02-15T03:09:20.135Z,0
2019-02-15T03:10:34.804Z,0
2019-02-15T03:11:20.146Z,0
2019-02-15T03:12:20.171Z,0
2019-02-15T03:13:20.164Z,0
2019-02-15T03:14:20.217Z,0
2019-02-15T03:15:20.298Z,0
2019-02-15T03:17:20.220Z,0
2019-02-15T03:18:20.230Z,0
2019-02-15T03:19:20.244Z,0
2019-02-15T03:20:30.302Z,0
2019-02-15T03:23:20.318Z,0
2019-02-15T03:24:20.341Z,0
2019-02-15T03:25:20.316Z,0
2019-02-15T03:26:20.334Z,0
2019-02-15T03:28:20.354Z,0
2019-02-15T03:29:20.367Z,0
2019-02-15T03:30:20.546Z,0
2019-02-15T03:31:20.426Z,0
2019-02-15T03:33:20.462Z,0
2019-02-15T03:34:20.454Z,0
2019-02-15T03:35:20.431Z,0
2019-02-15T03:36:20.446Z,0
2019-02-15T03:37:20.254Z,0
2019-02-15T03:38:20.587Z,0
2019-02-15T03:39:20.488Z,0
2019-02-15T03:40:20.601Z,0
2019-02-15T03:41:20.512Z,0
2019-02-15T03:42:35.191Z,0
2019-02-15T03:43:20.644Z,0
2019-02-15T03:44:29.481Z,0
2019-02-15T03:45:35.237Z,0
2019-02-15T03:46:20.574Z,0
2019-02-15T03:47:20.577Z,0
2019-02-15T03:48:20.616Z,0
2019-02-15T03:49:20.617Z,0
2019-02-15T03:50:20.629Z,0
2019-02-15T03:51:35.311Z,0
2019-02-15T03:52:20.641Z,0
2019-02-15T03:53:35.315Z,0
2019-02-15T03:54:35.433Z,0
2019-02-15T03:55:20.682Z,0
2019-02-15T03:56:20.694Z,0
2019-02-15T03:57:20.703Z,0
2019-02-15T03:58:35.385Z,0
2019-02-15T04:00:20.773Z,0
2019-02-15T04:01:20.514Z,0
2019-02-15T04:02:20.785Z,0
2019-02-15T04:03:20.787Z,0
2019-02-15T04:04:35.445Z,0
2019-02-15T04:05:20.809Z,0
2019-02-15T04:06:20.815Z,0
2019-02-15T04:07:35.501Z,0
2019-02-15T04:08:20.837Z,0
2019-02-15T04:09:35.547Z,0
2019-02-15T04:11:20.906Z,0
2019-02-15T04:12:20.982Z,0
2019-02-15T04:13:20.898Z,0
2019-02-15T04:14:38.077Z,0
2019-02-15T04:15:20.925Z,0
2019-02-15T04:17:20.946Z,0
2019-02-15T04:18:20.954Z,0
2019-02-15T04:19:20.964Z,0
2019-02-15T04:20:20.979Z,0
2019-02-15T04:21:20.818Z,0
2019-02-15T04:23:21.019Z,0
2019-02-15T04:24:21.033Z,0
2019-02-15T04:25:21.046Z,0
2019-02-15T04:26:21.045Z,0
2019-02-15T04:27:21.081Z,0
2019-02-15T04:28:21.074Z,0
2019-02-15T04:29:21.091Z,0
2019-02-15T04:30:35.753Z,0
2019-02-15T04:32:35.785Z,0
2019-02-15T04:33:21.174Z,0
2019-02-15T04:34:21.146Z,0
2019-02-15T04:35:21.161Z,0
2019-02-15T04:37:21.173Z,0
2019-02-15T04:39:35.861Z,0
2019-02-15T04:41:21.229Z,0
2019-02-15T04:42:21.279Z,0
2019-02-15T04:43:21.287Z,0
2019-02-15T04:44:21.262Z,0
2019-02-15T04:45:35.944Z,0
2019-02-15T04:47:21.332Z,0
2019-02-15T04:48:21.309Z,0
2019-02-15T04:49:21.322Z,0
2019-02-15T04:50:21.341Z,0
2019-02-15T04:51:21.368Z,0
2019-02-15T04:52:21.363Z,0
2019-02-15T04:53:21.378Z,0
2019-02-15T04:54:21.389Z,0
2019-02-15T04:55:21.405Z,0
2019-02-15T04:57:21.508Z,0
2019-02-15T04:58:21.423Z,0
2019-02-15T04:59:21.507Z,0
2019-02-15T05:00:21.473Z,0
2019-02-15T05:01:36.132Z,0
2019-02-15T05:02:21.559Z,0
2019-02-15T05:03:36.157Z,0
2019-02-15T05:04:21.510Z,0
2019-02-15T05:05:21.511Z,0
2019-02-15T05:06:21.568Z,0
2019-02-15T05:07:21.531Z,0
2019-02-15T05:08:21.577Z,0
2019-02-15T05:09:21.562Z,0
2019-02-15T05:10:21.597Z,0
2019-02-15T05:11:36.249Z,0
2019-02-15T05:13:21.607Z,0
2019-02-15T05:14:21.627Z,0
2019-02-15T05:15:21.661Z,0
2019-02-15T05:16:21.657Z,0
2019-02-15T05:17:50.982Z,0
2019-02-15T05:18:21.670Z,0
2019-02-15T05:19:21.696Z,0
2019-02-15T05:20:21.693Z,0
2019-02-15T05:21:21.697Z,0
2019-02-15T05:22:21.720Z,0
2019-02-15T05:24:21.735Z,0
2019-02-15T05:25:21.858Z,0
2019-02-15T05:26:36.417Z,0
2019-02-15T05:27:21.772Z,0
2019-02-15T05:28:21.781Z,0
2019-02-15T05:29:36.466Z,0
2019-02-15T05:30:21.924Z,0
2019-02-15T05:31:21.813Z,0
2019-02-15T05:32:21.839Z,0
2019-02-15T05:33:38.132Z,0
2019-02-15T05:34:21.852Z,0
2019-02-15T05:35:21.923Z,0
2019-02-15T05:36:21.873Z,0
2019-02-15T05:37:21.887Z,0
2019-02-15T05:38:21.909Z,0
2019-02-15T05:39:21.908Z,0
2019-02-15T05:40:21.932Z,0
2019-02-15T05:41:21.945Z,0
2019-02-15T05:42:36.610Z,0
2019-02-15T05:43:21.973Z,0
2019-02-15T05:44:23.620Z,4
2019-02-15T05:45:21.986Z,4
2019-02-15T05:46:36.752Z,0
2019-02-15T05:47:22.007Z,4
2019-02-15T05:48:22.018Z,4
2019-02-15T05:49:36.692Z,4
2019-02-15T05:50:22.052Z,4
2019-02-15T05:51:22.055Z,4
2019-02-15T05:52:22.075Z,8
2019-02-15T05:53:22.082Z,8
2019-02-15T05:54:22.086Z,8
2019-02-15T05:55:22.097Z,8
2019-02-15T05:56:22.112Z,12
2019-02-15T05:57:22.121Z,12
2019-02-15T05:58:22.138Z,16
2019-02-15T05:59:22.154Z,20
2019-02-15T06:00:22.171Z,20
2019-02-15T06:01:36.831Z,24
2019-02-15T06:02:22.176Z,32
2019-02-15T06:03:22.207Z,36
2019-02-15T06:04:22.216Z,44
2019-02-15T06:05:36.876Z,56
2019-02-15T06:06:22.233Z,60
2019-02-15T06:07:22.238Z,72
2019-02-15T06:08:22.273Z,80
2019-02-15T06:09:36.931Z,100
2019-02-15T06:10:22.275Z,112
2019-02-15T06:11:22.315Z,128
2019-02-15T06:12:22.291Z,144
2019-02-15T06:13:22.325Z,160
2019-02-15T06:14:22.079Z,188
2019-02-15T06:15:22.980Z,212
2019-02-15T06:16:22.093Z,240
2019-02-15T06:17:37.014Z,272
2019-02-15T06:18:22.367Z,292
2019-02-15T06:19:22.382Z,320
2019-02-15T06:20:51.717Z,372
2019-02-15T06:21:22.421Z,388
2019-02-15T06:22:22.412Z,424
2019-02-15T06:23:22.421Z,452
2019-02-15T06:24:22.446Z,492
2019-02-15T06:25:22.521Z,532
2019-02-15T06:26:22.458Z,572
2019-02-15T06:27:22.469Z,620
2019-02-15T06:28:22.482Z,664
2019-02-15T06:30:22.507Z,756
2019-02-15T06:31:22.512Z,808
2019-02-15T06:33:22.402Z,920
2019-02-15T06:35:22.667Z,1040
2019-02-15T06:36:22.579Z,1096
2019-02-15T06:37:22.602Z,1168
2019-02-15T06:38:22.601Z,1236
2019-02-15T06:39:22.610Z,1312
2019-02-15T06:40:22.624Z,1392
2019-02-15T06:41:22.637Z,1468
2019-02-15T06:42:22.409Z,1540
2019-02-15T06:44:22.671Z,1672
2019-02-15T06:45:46.029Z,1760
2019-02-15T06:46:37.350Z,1828
2019-02-15T06:47:22.705Z,2276
2019-02-15T06:48:22.718Z,3828
2019-02-15T06:49:22.730Z,4064
2019-02-15T06:50:22.762Z,2560
2019-02-15T06:51:22.782Z,2128
2019-02-15T06:52:37.426Z,2192
2019-02-15T06:53:22.799Z,2232
2019-02-15T06:54:22.793Z,2280
2019-02-15T06:55:22.546Z,2332
2019-02-15T06:56:37.476Z,2404
2019-02-15T06:57:22.821Z,2436
2019-02-15T06:59:22.841Z,2544
2019-02-15T07:00:22.860Z,2596
2019-02-15T07:01:22.884Z,2652
2019-02-15T07:02:22.892Z,2704
2019-02-15T07:03:22.941Z,2756
2019-02-15T07:04:22.898Z,2804
2019-02-15T07:05:37.573Z,2868
2019-02-15T07:07:22.943Z,2952
2019-02-15T07:08:37.611Z,3012
2019-02-15T07:09:22.966Z,3052
2019-02-15T07:10:22.972Z,3096
2019-02-15T07:11:22.986Z,3132
2019-02-15T07:12:23.005Z,3180
2019-02-15T07:13:37.689Z,3244
2019-02-15T07:14:23.416Z,3280
2019-02-15T07:16:23.050Z,3492
2019-02-15T07:17:23.058Z,9816
2019-02-15T07:18:37.739Z,22080
2019-02-15T07:19:23.079Z,27360
2019-02-15T07:20:23.134Z,29952
2019-02-15T07:21:23.118Z,29088
2019-02-15T07:23:23.136Z,30976
2019-02-15T07:24:37.802Z,31296
2019-02-15T07:25:23.160Z,32064
2019-02-15T07:26:23.202Z,32480
2019-02-15T07:27:23.182Z,32224
2019-02-15T07:28:23.199Z,33120
2019-02-15T07:29:23.215Z,33952
2019-02-15T07:30:23.235Z,34464
2019-02-15T07:31:23.339Z,35232
2019-02-15T07:32:23.255Z,33344
2019-02-15T07:33:23.272Z,34432
2019-02-15T07:34:23.283Z,35584
2019-02-15T07:35:23.325Z,35264
2019-02-15T07:36:23.319Z,35040
2019-02-15T07:37:23.337Z,35584
2019-02-15T07:38:23.380Z,35488
2019-02-15T07:39:23.368Z,34528
2019-02-15T07:40:38.045Z,36224
2019-02-15T07:41:23.416Z,36544
2019-02-15T07:42:23.728Z,36032
2019-02-15T07:43:23.428Z,35616
2019-02-15T07:44:23.442Z,35424
2019-02-15T07:45:25.226Z,34528
2019-02-15T07:46:38.142Z,33088
2019-02-15T07:47:23.492Z,33888
2019-02-15T07:48:23.513Z,30976
2019-02-15T07:49:38.192Z,18016
2019-02-15T07:50:23.544Z,14624
2019-02-15T07:51:23.583Z,14024
2019-02-15T07:52:23.578Z,13888
2019-02-15T07:53:23.600Z,14056
2019-02-15T07:54:23.615Z,13948
2019-02-15T07:55:38.291Z,13776
2019-02-15T07:56:23.660Z,13760
2019-02-15T07:57:23.667Z,13720
2019-02-15T07:58:23.706Z,13652
2019-02-15T07:59:23.699Z,13628
2019-02-15T08:00:23.714Z,12532
2019-02-15T08:01:23.512Z,12380
2019-02-15T08:02:23.757Z,13552
2019-02-15T08:03:23.774Z,13680
2019-02-15T08:05:25.894Z,13724
2019-02-15T08:06:38.482Z,13760
2019-02-15T08:07:23.842Z,13732
2019-02-15T08:08:23.852Z,13804
2019-02-15T08:09:23.873Z,13812
2019-02-15T08:10:23.888Z,13808
2019-02-15T08:11:23.901Z,13796
2019-02-15T08:12:23.930Z,13796
2019-02-15T08:13:23.936Z,13804
2019-02-15T08:14:39.496Z,13860
2019-02-15T08:15:23.970Z,13888
2019-02-15T08:16:23.753Z,13932
2019-02-15T08:17:38.679Z,13976
2019-02-15T08:18:24.035Z,14040
2019-02-15T08:19:25.967Z,14096
2019-02-15T08:20:24.060Z,14060
2019-02-15T08:21:24.085Z,14120
2019-02-15T08:22:38.773Z,14148
2019-02-15T08:23:24.116Z,14184
2019-02-15T08:24:24.133Z,14220
2019-02-15T08:25:24.152Z,14160
2019-02-15T08:26:24.264Z,14260
2019-02-15T08:27:38.852Z,14428
2019-02-15T08:28:24.313Z,14376
2019-02-15T08:29:24.218Z,14680
2019-02-15T08:30:24.624Z,15828
2019-02-15T08:31:24.249Z,16544
2019-02-15T08:32:24.266Z,16056
2019-02-15T08:33:24.385Z,15672
2019-02-15T08:34:24.303Z,15536
2019-02-15T08:35:38.990Z,15664
2019-02-15T08:36:24.338Z,15504
2019-02-15T08:37:39.025Z,15320
2019-02-15T08:38:24.372Z,15504
2019-02-15T08:39:24.417Z,15572
2019-02-15T08:40:39.962Z,15552
2019-02-15T08:41:24.430Z,15344
2019-02-15T08:42:24.450Z,15184
2019-02-15T08:43:39.524Z,15096
2019-02-15T08:44:24.486Z,15024
2019-02-15T08:45:24.522Z,15092
2019-02-15T08:46:24.513Z,15220
2019-02-15T08:47:24.538Z,15076
2019-02-15T08:48:24.553Z,15000
2019-02-15T08:49:24.673Z,15024
2019-02-15T08:50:24.693Z,15072
2019-02-15T08:51:39.283Z,15016
2019-02-15T08:52:39.285Z,15156
2019-02-15T08:53:39.301Z,15164
2019-02-15T08:54:24.658Z,15188
2019-02-15T08:55:39.338Z,15356
2019-02-15T08:56:24.715Z,15384
2019-02-15T08:59:39.164Z,15656
2019-02-15T09:00:24.770Z,15772
2019-02-15T09:01:24.541Z,15656
2019-02-15T09:02:24.801Z,15696
2019-02-15T09:03:26.762Z,15592
2019-02-15T09:04:24.936Z,15560
2019-02-15T09:06:24.883Z,15628
2019-02-15T09:07:24.902Z,15500
2019-02-15T09:08:24.912Z,15436
2019-02-15T09:09:24.925Z,15320
2019-02-15T09:11:24.962Z,15188
2019-02-15T09:12:39.645Z,15232
2019-02-15T09:13:25.011Z,15132
2019-02-15T09:14:25.021Z,15040
2019-02-15T09:15:39.701Z,15048
2019-02-15T09:16:25.073Z,15068
2019-02-15T09:17:25.169Z,15180
2019-02-15T09:18:25.090Z,15212
2019-02-15T09:19:25.111Z,15372
2019-02-15T09:20:25.133Z,15320
2019-02-15T09:21:39.811Z,14992
2019-02-15T09:22:25.161Z,14672
2019-02-15T09:23:39.845Z,14316
2019-02-15T09:24:25.205Z,14284
2019-02-15T09:25:25.221Z,14156
2019-02-15T09:26:40.346Z,14048
2019-02-15T09:27:25.264Z,14036
2019-02-15T09:29:25.301Z,13804
2019-02-15T09:30:39.973Z,13800
2019-02-15T09:31:25.333Z,13716
2019-02-15T09:32:25.344Z,13716
2019-02-15T09:33:25.371Z,13660
2019-02-15T09:34:25.386Z,13748
2019-02-15T09:35:25.403Z,13816
2019-02-15T09:36:25.434Z,13676
2019-02-15T09:37:40.109Z,13476
2019-02-15T09:38:25.473Z,13476
2019-02-15T09:39:25.496Z,13428
2019-02-15T09:40:25.512Z,13368
2019-02-15T09:41:25.527Z,13236
2019-02-15T09:43:25.562Z,13412
2019-02-15T09:44:25.576Z,13556
2019-02-15T09:45:25.589Z,13644
2019-02-15T09:46:27.418Z,13700
2019-02-15T09:47:25.632Z,13740
2019-02-15T09:48:25.464Z,13740
2019-02-15T09:49:29.237Z,13796
2019-02-15T09:50:25.699Z,13896
2019-02-15T09:51:25.710Z,14016
2019-02-15T09:52:25.569Z,14300
2019-02-15T09:53:40.420Z,14752
2019-02-15T09:55:25.789Z,15776
2019-02-15T09:56:25.796Z,16000
2019-02-15T09:57:25.820Z,16256
2019-02-15T09:58:25.842Z,16512
2019-02-15T09:59:25.852Z,16384
2019-02-15T10:01:25.908Z,16512
2019-02-15T10:02:40.588Z,16256
2019-02-15T10:03:25.939Z,16128
2019-02-15T10:04:25.953Z,16192
2019-02-15T10:05:25.968Z,16032
2019-02-15T10:06:25.988Z,15968
2019-02-15T10:07:26.011Z,15968
2019-02-15T10:08:26.030Z,15968
2019-02-15T10:09:26.040Z,15904
2019-02-15T10:10:26.060Z,15872
2019-02-15T10:11:26.086Z,15744
2019-02-15T10:13:26.122Z,15456
2019-02-15T10:14:26.184Z,15264
2019-02-15T10:15:26.182Z,15008
2019-02-15T10:16:34.529Z,14588
2019-02-15T10:17:26.200Z,14304
2019-02-15T10:18:40.879Z,14036
2019-02-15T10:19:29.751Z,13908
2019-02-15T10:20:26.255Z,13788
2019-02-15T10:21:26.279Z,13596
2019-02-15T10:22:26.401Z,13492
2019-02-15T10:23:26.313Z,12744
2019-02-15T10:24:26.335Z,11840
2019-02-15T10:25:26.350Z,11732
2019-02-15T10:26:26.384Z,11596
2019-02-15T10:27:41.174Z,11320
2019-02-15T10:30:26.513Z,10716
2019-02-15T10:31:26.709Z,10260
2019-02-15T10:32:26.489Z,9632
2019-02-15T10:33:26.519Z,9052
2019-02-15T10:34:41.190Z,8472
2019-02-15T10:35:26.546Z,8136
2019-02-15T10:36:26.569Z,7768
2019-02-15T10:37:26.339Z,7420
2019-02-15T10:38:26.602Z,7044
2019-02-15T10:39:26.625Z,6792
2019-02-15T10:40:26.646Z,6660
2019-02-15T10:41:41.345Z,6380
2019-02-15T10:42:26.680Z,6240
2019-02-15T10:43:26.700Z,6060
2019-02-15T10:44:28.605Z,5888
2019-02-15T10:45:26.791Z,5752
2019-02-15T10:46:26.755Z,5612
2019-02-15T10:47:32.437Z,5468
2019-02-15T10:48:26.797Z,5344
2019-02-15T10:49:26.818Z,5212
2019-02-15T10:50:41.595Z,5076
2019-02-15T10:51:26.853Z,5000
2019-02-15T10:52:26.869Z,4932
2019-02-15T10:54:26.914Z,4804
2019-02-15T10:55:26.928Z,4740
2019-02-15T10:56:26.953Z,4684
2019-02-15T10:57:26.964Z,4640
2019-02-15T10:58:28.835Z,4604
2019-02-15T10:59:27.001Z,4584
2019-02-15T11:00:27.021Z,4556
2019-02-15T11:01:27.144Z,4544
2019-02-15T11:02:27.059Z,4544
2019-02-15T11:03:27.082Z,4524
2019-02-15T11:04:27.101Z,4532
2019-02-15T11:05:41.801Z,4520
2019-02-15T11:06:27.136Z,4520
2019-02-15T11:07:27.163Z,4504
2019-02-15T11:08:27.174Z,4504
2019-02-15T11:09:27.203Z,4500
2019-02-15T11:10:26.969Z,4512
2019-02-15T11:11:27.241Z,4508
2019-02-15T11:12:27.264Z,4520
2019-02-15T11:13:41.933Z,4524
2019-02-15T11:14:27.300Z,4532
2019-02-15T11:15:27.323Z,4524
2019-02-15T11:16:27.184Z,4524
2019-02-15T11:17:42.020Z,4512
2019-02-15T11:18:42.044Z,4504
2019-02-15T11:19:27.138Z,4500
2019-02-15T11:21:27.434Z,4524
2019-02-15T11:23:27.458Z,4564
2019-02-15T11:24:27.486Z,4580
2019-02-15T11:25:27.497Z,4584
2019-02-15T11:26:32.131Z,4584
2019-02-15T11:27:27.538Z,4596
2019-02-15T11:28:27.562Z,4584
2019-02-15T11:29:27.572Z,4580
2019-02-15T11:30:27.591Z,4572
2019-02-15T11:31:27.615Z,4584
2019-02-15T11:32:27.729Z,4592
2019-02-15T11:33:27.653Z,4596
2019-02-15T11:34:27.670Z,4600
2019-02-15T11:35:27.682Z,4592
2019-02-15T11:36:29.671Z,4592
2019-02-15T11:37:42.386Z,4612
2019-02-15T11:38:27.743Z,4624
2019-02-15T11:39:27.771Z,4640
2019-02-15T11:40:27.776Z,4632
2019-02-15T11:41:27.797Z,4628
2019-02-15T11:42:27.820Z,4648
2019-02-15T11:43:27.837Z,4656
2019-02-15T11:45:42.539Z,4672
2019-02-15T11:46:27.903Z,4672
2019-02-15T11:47:27.915Z,4688
2019-02-15T11:48:29.412Z,4704
2019-02-15T11:49:27.952Z,4728
2019-02-15T11:50:28.068Z,4740
2019-02-15T11:51:27.998Z,4740
2019-02-15T11:52:28.006Z,4752
2019-02-15T11:53:42.688Z,4764
2019-02-15T11:54:30.737Z,4760
2019-02-15T11:55:28.068Z,4744
2019-02-15T11:56:28.109Z,4772
2019-02-15T11:57:28.108Z,4780
2019-02-15T11:58:28.157Z,4776
2019-02-15T11:59:28.150Z,4772
2019-02-15T12:00:30.336Z,4772
2019-02-15T12:02:28.219Z,4776
2019-02-15T12:03:28.223Z,4788
2019-02-15T12:04:28.237Z,4792
2019-02-15T12:05:28.310Z,4800
2019-02-15T12:06:28.375Z,4804
2019-02-15T12:07:28.310Z,4808
2019-02-15T12:08:28.314Z,4828
2019-02-15T12:09:42.993Z,4852
2019-02-15T12:10:28.360Z,4852
2019-02-15T12:11:28.371Z,4856
2019-02-15T12:12:28.500Z,4864
2019-02-15T12:13:43.077Z,4868
2019-02-15T12:14:28.438Z,4868
2019-02-15T12:15:28.449Z,4868
2019-02-15T12:16:28.473Z,4872
2019-02-15T12:17:28.484Z,4880
2019-02-15T12:18:28.506Z,4904
2019-02-15T12:19:28.528Z,4912
2019-02-15T12:20:28.539Z,4916
2019-02-15T12:21:28.568Z,4928
2019-02-15T12:22:43.248Z,4928
2019-02-15T12:24:28.624Z,4932
2019-02-15T12:25:43.302Z,4924
2019-02-15T12:26:28.683Z,4928
2019-02-15T12:27:43.348Z,4896
2019-02-15T12:28:30.586Z,4856
2019-02-15T12:29:28.715Z,4876
2019-02-15T12:30:28.756Z,4852
2019-02-15T12:31:28.761Z,4832
2019-02-15T12:32:28.774Z,4828
2019-02-15T12:33:28.551Z,4820
2019-02-15T12:34:28.819Z,4844
2019-02-15T12:35:28.831Z,4804
2019-02-15T12:37:28.898Z,4804
2019-02-15T12:38:28.940Z,4812
2019-02-15T12:39:28.921Z,4804
2019-02-15T12:40:43.606Z,4796
2019-02-15T12:41:28.979Z,4796
2019-02-15T12:42:28.973Z,4792
2019-02-15T12:43:28.990Z,4804
2019-02-15T12:44:30.224Z,4784
2019-02-15T12:45:29.063Z,4780
2019-02-15T12:46:29.048Z,4788
2019-02-15T12:47:29.090Z,4816
2019-02-15T12:48:29.096Z,4808
2019-02-15T12:49:29.106Z,4800
2019-02-15T12:50:43.807Z,4740
2019-02-15T12:51:29.160Z,4748
2019-02-15T12:52:43.849Z,4740
2019-02-15T12:53:43.850Z,4732
2019-02-15T12:54:29.251Z,4720
2019-02-15T12:55:29.228Z,4716
2019-02-15T12:57:29.270Z,4716
2019-02-15T12:58:29.289Z,4712
2019-02-15T12:59:29.318Z,4696
2019-02-15T13:00:29.338Z,4684
2019-02-15T13:01:29.446Z,4680
2019-02-15T13:02:44.029Z,4700
2019-02-15T13:03:29.380Z,4728
2019-02-15T13:04:29.416Z,4720
2019-02-15T13:05:29.520Z,4696
2019-02-15T13:06:35.774Z,4652
2019-02-15T13:07:31.606Z,4660
2019-02-15T13:08:29.485Z,4672
2019-02-15T13:09:29.897Z,4548
2019-02-15T13:10:29.585Z,4564
2019-02-15T13:11:29.542Z,4556
2019-02-15T13:12:44.226Z,4576
2019-02-15T13:13:31.667Z,4600
2019-02-15T13:14:29.601Z,4584
2019-02-15T13:15:29.635Z,4580
2019-02-15T13:16:29.748Z,4576
2019-02-15T13:17:32.099Z,4580
2019-02-15T13:18:29.790Z,4556
2019-02-15T13:19:44.366Z,4552
2019-02-15T13:20:29.723Z,4556
2019-02-15T13:21:29.753Z,4572
2019-02-15T13:23:29.929Z,4604
2019-02-15T13:25:38.940Z,4560
2019-02-15T13:26:30.355Z,4556
2019-02-15T13:27:29.854Z,4576
2019-02-15T13:28:44.297Z,4596
2019-02-15T13:29:30.021Z,4604
2019-02-15T13:30:29.924Z,4624
2019-02-15T13:31:30.440Z,4628
2019-02-15T13:32:29.989Z,4604
2019-02-15T13:33:29.976Z,4592
2019-02-15T13:34:30.007Z,4588
2019-02-15T13:35:29.778Z,4572
2019-02-15T13:36:44.695Z,4604
2019-02-15T13:37:30.053Z,4616
2019-02-15T13:38:30.076Z,4672
2019-02-15T13:39:30.146Z,4696
2019-02-15T13:40:30.159Z,4684
2019-02-15T13:41:31.850Z,4688
2019-02-15T13:42:44.825Z,4676
2019-02-15T13:43:30.189Z,4668
2019-02-15T13:44:44.851Z,4672
2019-02-15T13:45:31.963Z,4680
2019-02-15T13:46:30.230Z,4680
2019-02-15T13:47:39.353Z,4708
2019-02-15T13:48:30.274Z,4664
2019-02-15T13:49:44.957Z,4740
2019-02-15T13:50:30.308Z,4748
2019-02-15T13:51:44.993Z,4752
2019-02-15T13:53:30.377Z,4776
2019-02-15T13:54:30.400Z,4792
2019-02-15T13:55:30.157Z,4796
2019-02-15T13:56:30.431Z,4800
2019-02-15T13:57:30.456Z,4804
2019-02-15T13:58:30.465Z,4816
2019-02-15T13:59:30.493Z,4804
2019-02-15T14:00:45.169Z,4804
2019-02-15T14:03:32.632Z,4784
2019-02-15T14:04:30.584Z,4776
2019-02-15T14:05:30.613Z,4780
2019-02-15T14:06:45.300Z,4776
2019-02-15T14:07:30.654Z,4772
2019-02-15T14:08:30.666Z,4764
2019-02-15T14:09:45.357Z,4752
2019-02-15T14:10:30.711Z,4740
2019-02-15T14:11:30.736Z,4748
2019-02-15T14:13:45.430Z,4764
2019-02-15T14:16:00.158Z,4760
2019-02-15T14:16:30.938Z,4756
2019-02-15T14:17:30.846Z,4744
2019-02-15T14:18:30.874Z,4736
2019-02-15T14:19:30.892Z,4704
2019-02-15T14:20:30.911Z,4676
2019-02-15T14:21:30.939Z,4644
2019-02-15T14:24:30.997Z,4636
2019-02-15T14:25:31.010Z,4612
2019-02-15T14:26:45.757Z,4572
2019-02-15T14:27:45.754Z,4544
2019-02-15T14:30:31.129Z,4508
2019-02-15T14:31:31.228Z,4512
2019-02-15T14:32:31.151Z,4524
2019-02-15T14:34:31.187Z,4500
2019-02-15T14:35:31.312Z,4480
2019-02-15T14:36:31.233Z,4468
2019-02-15T14:37:31.252Z,4468
2019-02-15T14:38:31.268Z,4456
2019-02-15T14:39:31.305Z,4440
2019-02-15T14:40:31.307Z,4420
2019-02-15T14:41:31.334Z,4392
2019-02-15T14:43:31.438Z,4360
2019-02-15T14:45:31.413Z,4320
2019-02-15T14:46:31.450Z,4304
2019-02-15T14:47:54.228Z,4280
2019-02-15T14:48:31.475Z,4260
2019-02-15T14:50:31.514Z,4176
2019-02-15T14:51:31.547Z,4132
2019-02-15T14:52:31.554Z,4088
2019-02-15T14:53:31.568Z,4052
2019-02-15T14:54:31.604Z,4016
2019-02-15T14:55:31.609Z,4000
2019-02-15T14:56:31.635Z,3988
2019-02-15T14:57:31.646Z,3984
2019-02-15T14:58:31.684Z,3976